Accueil
METAR-TAF:

METAR-TAF

Aéroports :

Base aérienne de Kleine-Brogel

Peer, Belgique

latitude: 51-10N, longitude: 005-28E, altitude: 55 m

Observation

Le bulletin a été fait il y a 22 minutes, à 13:25 UTC
Vent 8 kt de sud-ouest
Température 25°C
Humidité 39%
Pression 1025 hPa
Visibilité 10 km ou plus
Quelques nuages à une hauteur de 5000 ft

METAR: EBBL 221325Z 23008KT 9999 FEW050 25/10 Q1025 BLU BLU

Heure: 15:47 (13:47 UTC)

Prévision

Le bulletin a été fait il y a 2 heures et 6 minutes, à 11:41 UTC
Prévision valable du 22 à 13 UTC au 22 à 22 UTC
Vent 4 kt de ouest/sud-ouest
Visibilité 10 km ou plus
Quelques nuages à une hauteur de 5000 ft
Evoluant progressivement
du 22 à 15 UTC au 22 à 17 UTC
Vent 4 kt de ouest/nord-ouest avec des rafales jusqu'à 14 kt
Ciel clair

TAF: EBBL 221141Z 2213/2222 24004KT 9999 FEW050 BECMG 2215/2217 30004G14KT SKC

Observations et prévisions météorologiques de plus de 4000 aéroports (messages METAR et TAF).

Les stations disponibles sont représentées par des disques jaunes et rouges sur la carte.

Passer la souris dessus pour voir le nom de la station.

Cliquer dessus pour voir les observations et prévisions météorologiques.

Pour changer de carte: cliquez sur les boutons verts avec une croix noire pour zoomer, sur le bouton vert avec un tiret pour effectuer un zoom arrière, ou sur les flèches vertes pour les cartes adjacentes.


METAR-TAF: